Terminal Aerodrome Forecast
Issued by NWS

Home | Current Version | Previous Version | Text Only | Print | Product List | Glossary On
Versions: 1 2 3 4 5 6 7 8 9 10 11 12 13 14 15 16 17 18 19 20 21 22 23 24 25 26 27 28
000
FTUS46 KSEW 271700
TAFHQM
TAF
KHQM 271720Z 2718/2818 20008KT 5SM BR BKN005 BKN100
     FM272000 21010G20KT P6SM -RA BKN020 OVC050
     FM280000 20012G22KT P6SM -RA SCT010 OVC020
     FM280800 28012KT P6SM -SHRA BKN015 OVC030
     FM281200 28010KT P6SM VCSH BKN020 BKN040=

USA.gov is the U.S. government's official web portal to all federal, state and local government web resources and services.